Terminal Aerodrome Forecast
Issued by NWS

Home | Current Version | Previous Version | Graphics & Text | Print | Product List | Glossary On
Versions: 1 2 3 4 5 6 7 8 9 10 11 12 13 14 15 16 17 18 19 20 21 22
000
FTUS43 KGRB 241100
TAFATW
TAF
KATW 241132Z 2412/2512 VRB03KT 1/4SM -DZ FG VV002
      TEMPO 2412/2414 1SM BR OVC002
     FM241400 01007KT 4SM BR OVC007
     FM241800 01010G15KT 6SM BR OVC010
     FM242200 36013G22KT 6SM -SN SCT012 OVC020
     FM250100 34011G20KT P6SM -SN SCT014 BKN024
     FM250600 28010KT P6SM OVC025=

USA.gov is the U.S. government's official web portal to all federal, state and local government web resources and services.